sensor_id;sensor_type;location;lat;lon;timestamp;pressure;altitude;pressure_sealevel;temperature;humidity
6224;BME280;3145;42.726;23.342;2022-10-16T00:00:43;95988.84;;;8.81;90.64
6224;BME280;3145;42.726;23.342;2022-10-16T00:03:10;95999.47;;;8.89;91.56
6224;BME280;3145;42.726;23.342;2022-10-16T00:05:39;96011.00;;;8.88;91.26
6224;BME280;3145;42.726;23.342;2022-10-16T00:08:08;95998.03;;;8.77;91.83
6224;BME280;3145;42.726;23.342;2022-10-16T00:10:35;96013.47;;;8.89;91.50
6224;BME280;3145;42.726;23.342;2022-10-16T00:13:02;96012.03;;;8.95;91.77
6224;BME280;3145;42.726;23.342;2022-10-16T00:15:29;95933.56;;;8.46;91.86
6224;BME280;3145;42.726;23.342;2022-10-16T00:17:56;96021.75;;;8.94;91.19
6224;BME280;3145;42.726;23.342;2022-10-16T00:20:23;95976.53;;;8.64;91.31
6224;BME280;3145;42.726;23.342;2022-10-16T00:22:50;96025.66;;;8.90;91.57
6224;BME280;3145;42.726;23.342;2022-10-16T00:25:18;96004.66;;;8.81;92.08
6224;BME280;3145;42.726;23.342;2022-10-16T00:27:45;96026.03;;;8.95;91.77
6224;BME280;3145;42.726;23.342;2022-10-16T00:30:11;96028.44;;;8.89;91.63
6224;BME280;3145;42.726;23.342;2022-10-16T00:32:38;96028.16;;;8.92;91.80
6224;BME280;3145;42.726;23.342;2022-10-16T00:35:05;96016.56;;;8.85;91.41
6224;BME280;3145;42.726;23.342;2022-10-16T00:37:32;96039.69;;;8.91;91.57
6224;BME280;3145;42.726;23.342;2022-10-16T00:39:59;96037.34;;;8.88;91.16
6224;BME280;3145;42.726;23.342;2022-10-16T00:42:27;96036.00;;;8.84;91.07
6224;BME280;3145;42.726;23.342;2022-10-16T00:44:55;96029.59;;;8.86;91.61
6224;BME280;3145;42.726;23.342;2022-10-16T00:47:25;96028.75;;;8.86;91.17
6224;BME280;3145;42.726;23.342;2022-10-16T00:50:07;96028.91;;;8.84;90.79
6224;BME280;3145;42.726;23.342;2022-10-16T00:52:35;96031.31;;;8.78;90.58
6224;BME280;3145;42.726;23.342;2022-10-16T00:55:05;96025.22;;;8.77;91.37
6224;BME280;3145;42.726;23.342;2022-10-16T00:57:34;96019.41;;;8.74;90.79
6224;BME280;3145;42.726;23.342;2022-10-16T01:00:01;96027.72;;;8.79;90.63
6224;BME280;3145;42.726;23.342;2022-10-16T01:02:29;96032.84;;;8.80;90.39
6224;BME280;3145;42.726;23.342;2022-10-16T01:04:55;96033.94;;;8.78;90.71
6224;BME280;3145;42.726;23.342;2022-10-16T01:07:33;96041.03;;;8.77;91.09
6224;BME280;3145;42.726;23.342;2022-10-16T01:10:08;96033.34;;;8.66;90.10
6224;BME280;3145;42.726;23.342;2022-10-16T01:12:42;96042.25;;;8.65;90.96
6224;BME280;3145;42.726;23.342;2022-10-16T01:15:15;96039.28;;;8.51;90.85
6224;BME280;3145;42.726;23.342;2022-10-16T01:17:47;96032.59;;;8.56;91.20
6224;BME280;3145;42.726;23.342;2022-10-16T01:20:22;95999.16;;;8.39;91.32
6224;BME280;3145;42.726;23.342;2022-10-16T01:23:04;96022.38;;;8.53;91.15
6224;BME280;3145;42.726;23.342;2022-10-16T01:25:44;95966.88;;;8.20;91.61
6224;BME280;3145;42.726;23.342;2022-10-16T01:28:17;96031.53;;;8.49;91.55
6224;BME280;3145;42.726;23.342;2022-10-16T01:30:46;96027.09;;;8.50;92.05
6224;BME280;3145;42.726;23.342;2022-10-16T01:33:17;96028.22;;;8.47;91.72
6224;BME280;3145;42.726;23.342;2022-10-16T01:35:47;96039.22;;;8.43;90.82
6224;BME280;3145;42.726;23.342;2022-10-16T01:38:21;96032.97;;;8.44;91.40
6224;BME280;3145;42.726;23.342;2022-10-16T01:40:52;96034.91;;;8.42;91.29
6224;BME280;3145;42.726;23.342;2022-10-16T01:43:25;96039.78;;;8.37;90.89
6224;BME280;3145;42.726;23.342;2022-10-16T01:45:53;96033.16;;;8.33;91.09
6224;BME280;3145;42.726;23.342;2022-10-16T01:48:21;96014.69;;;8.15;91.00
6224;BME280;3145;42.726;23.342;2022-10-16T01:50:54;96042.06;;;8.32;91.28
6224;BME280;3145;42.726;23.342;2022-10-16T01:53:22;96040.84;;;8.26;91.62
6224;BME280;3145;42.726;23.342;2022-10-16T01:55:54;96043.59;;;8.25;91.71
6224;BME280;3145;42.726;23.342;2022-10-16T01:58:24;96048.59;;;8.28;91.31
6224;BME280;3145;42.726;23.342;2022-10-16T02:00:52;96032.56;;;8.21;91.72
6224;BME280;3145;42.726;23.342;2022-10-16T02:03:21;96050.75;;;8.32;91.41
6224;BME280;3145;42.726;23.342;2022-10-16T02:05:50;96052.72;;;8.30;91.31
6224;BME280;3145;42.726;23.342;2022-10-16T02:08:18;96054.22;;;8.33;91.39
6224;BME280;3145;42.726;23.342;2022-10-16T02:10:45;96059.13;;;8.28;91.32
6224;BME280;3145;42.726;23.342;2022-10-16T02:13:15;96056.91;;;8.23;91.79
6224;BME280;3145;42.726;23.342;2022-10-16T02:15:45;96058.44;;;8.16;91.77
6224;BME280;3145;42.726;23.342;2022-10-16T02:18:11;96063.56;;;8.18;92.13
6224;BME280;3145;42.726;23.342;2022-10-16T02:20:43;96070.50;;;8.19;92.38
6224;BME280;3145;42.726;23.342;2022-10-16T02:23:19;96070.50;;;8.19;92.56
6224;BME280;3145;42.726;23.342;2022-10-16T02:25:47;96070.09;;;8.14;91.58
6224;BME280;3145;42.726;23.342;2022-10-16T02:28:17;96065.31;;;8.00;91.73
6224;BME280;3145;42.726;23.342;2022-10-16T02:30:50;96074.97;;;8.09;91.60
6224;BME280;3145;42.726;23.342;2022-10-16T02:33:19;96075.94;;;8.08;91.59
6224;BME280;3145;42.726;23.342;2022-10-16T02:35:49;96065.59;;;7.97;91.35
6224;BME280;3145;42.726;23.342;2022-10-16T02:38:17;96073.88;;;8.02;92.12
6224;BME280;3145;42.726;23.342;2022-10-16T02:40:45;96070.88;;;7.97;91.67
6224;BME280;3145;42.726;23.342;2022-10-16T02:43:13;96048.25;;;7.77;91.90
6224;BME280;3145;42.726;23.342;2022-10-16T02:45:39;96081.41;;;7.97;91.00
6224;BME280;3145;42.726;23.342;2022-10-16T02:48:08;96076.72;;;7.91;91.56
6224;BME280;3145;42.726;23.342;2022-10-16T02:50:34;96089.03;;;7.90;91.56
6224;BME280;3145;42.726;23.342;2022-10-16T02:53:01;96094.72;;;7.86;91.62
6224;BME280;3145;42.726;23.342;2022-10-16T02:55:28;96091.03;;;7.79;91.07
6224;BME280;3145;42.726;23.342;2022-10-16T02:57:55;96094.91;;;7.75;91.42
6224;BME280;3145;42.726;23.342;2022-10-16T03:00:21;96093.09;;;7.75;91.76
6224;BME280;3145;42.726;23.342;2022-10-16T03:02:48;96088.56;;;7.68;90.78
6224;BME280;3145;42.726;23.342;2022-10-16T03:05:16;96096.84;;;7.73;90.52
6224;BME280;3145;42.726;23.342;2022-10-16T03:07:43;96097.97;;;7.70;91.53
6224;BME280;3145;42.726;23.342;2022-10-16T03:10:10;96071.59;;;7.53;91.39
6224;BME280;3145;42.726;23.342;2022-10-16T03:12:36;96096.72;;;7.65;90.98
6224;BME280;3145;42.726;23.342;2022-10-16T03:15:04;96100.34;;;7.64;91.29
6224;BME280;3145;42.726;23.342;2022-10-16T03:17:32;96094.25;;;7.54;91.16
6224;BME280;3145;42.726;23.342;2022-10-16T03:19:59;96104.50;;;7.57;90.76
6224;BME280;3145;42.726;23.342;2022-10-16T03:22:27;96100.38;;;7.54;90.87
6224;BME280;3145;42.726;23.342;2022-10-16T03:24:54;96107.41;;;7.54;91.28
6224;BME280;3145;42.726;23.342;2022-10-16T03:27:20;96110.47;;;7.49;91.50
6224;BME280;3145;42.726;23.342;2022-10-16T03:29:47;96108.25;;;7.45;91.15
6224;BME280;3145;42.726;23.342;2022-10-16T03:32:14;96101.22;;;7.45;91.29
6224;BME280;3145;42.726;23.342;2022-10-16T03:34:40;96102.03;;;7.46;90.87
6224;BME280;3145;42.726;23.342;2022-10-16T03:37:07;96105.38;;;7.38;91.31
6224;BME280;3145;42.726;23.342;2022-10-16T03:39:35;96109.53;;;7.31;90.90
6224;BME280;3145;42.726;23.342;2022-10-16T03:42:02;96101.53;;;7.14;90.46
6224;BME280;3145;42.726;23.342;2022-10-16T03:44:29;96107.88;;;7.11;90.04
6224;BME280;3145;42.726;23.342;2022-10-16T03:46:55;96104.84;;;7.06;90.71
6224;BME280;3145;42.726;23.342;2022-10-16T03:49:22;96078.03;;;6.84;91.31
6224;BME280;3145;42.726;23.342;2022-10-16T03:51:49;96096.25;;;6.95;90.28
6224;BME280;3145;42.726;23.342;2022-10-16T03:54:16;96082.72;;;6.90;90.25
6224;BME280;3145;42.726;23.342;2022-10-16T03:56:44;96099.19;;;6.92;91.03
6224;BME280;3145;42.726;23.342;2022-10-16T03:59:10;96101.09;;;6.90;91.21
6224;BME280;3145;42.726;23.342;2022-10-16T04:01:37;96074.56;;;6.74;90.87
6224;BME280;3145;42.726;23.342;2022-10-16T04:04:04;96095.59;;;6.83;90.80
6224;BME280;3145;42.726;23.342;2022-10-16T04:06:31;96110.09;;;6.78;91.09
6224;BME280;3145;42.726;23.342;2022-10-16T04:08:58;96100.81;;;6.74;91.38
6224;BME280;3145;42.726;23.342;2022-10-16T04:11:25;96071.66;;;6.48;91.18
6224;BME280;3145;42.726;23.342;2022-10-16T04:13:54;96078.28;;;6.52;91.52
6224;BME280;3145;42.726;23.342;2022-10-16T04:16:20;96106.78;;;6.66;91.99
6224;BME280;3145;42.726;23.342;2022-10-16T04:18:47;96107.16;;;6.62;92.29
6224;BME280;3145;42.726;23.342;2022-10-16T04:21:14;96106.19;;;6.63;92.17
6224;BME280;3145;42.726;23.342;2022-10-16T04:23:41;96108.94;;;6.61;92.34
6224;BME280;3145;42.726;23.342;2022-10-16T04:26:08;96107.16;;;6.62;92.17
6224;BME280;3145;42.726;23.342;2022-10-16T04:28:35;96116.81;;;6.61;92.40
6224;BME280;3145;42.726;23.342;2022-10-16T04:31:05;96068.31;;;6.27;92.40
6224;BME280;3145;42.726;23.342;2022-10-16T04:33:32;96120.00;;;6.55;92.85
6224;BME280;3145;42.726;23.342;2022-10-16T04:36:00;96116.69;;;6.53;92.83
6224;BME280;3145;42.726;23.342;2022-10-16T04:38:27;96114.75;;;6.46;92.80
6224;BME280;3145;42.726;23.342;2022-10-16T04:40:54;96086.78;;;6.26;93.28
6224;BME280;3145;42.726;23.342;2022-10-16T04:43:21;96105.31;;;6.34;92.96
6224;BME280;3145;42.726;23.342;2022-10-16T04:45:48;96097.03;;;6.29;92.41
6224;BME280;3145;42.726;23.342;2022-10-16T04:48:17;96127.88;;;6.46;91.87
6224;BME280;3145;42.726;23.342;2022-10-16T04:50:44;96039.06;;;5.92;92.20
6224;BME280;3145;42.726;23.342;2022-10-16T04:53:11;96144.44;;;6.46;93.08
6224;BME280;3145;42.726;23.342;2022-10-16T04:55:37;96135.91;;;6.54;93.04
6224;BME280;3145;42.726;23.342;2022-10-16T04:58:04;96126.69;;;6.78;93.33
6224;BME280;3145;42.726;23.342;2022-10-16T05:00:31;96147.03;;;7.24;93.34
6224;BME280;3145;42.726;23.342;2022-10-16T05:02:58;96144.63;;;7.59;93.19
6224;BME280;3145;42.726;23.342;2022-10-16T05:05:27;96152.56;;;7.95;93.42
6224;BME280;3145;42.726;23.342;2022-10-16T05:07:54;96159.41;;;8.34;92.82
6224;BME280;3145;42.726;23.342;2022-10-16T05:10:21;96071.59;;;8.26;92.63
6224;BME280;3145;42.726;23.342;2022-10-16T05:12:47;96149.53;;;9.08;90.70
6224;BME280;3145;42.726;23.342;2022-10-16T05:15:14;96142.63;;;9.42;89.61
6224;BME280;3145;42.726;23.342;2022-10-16T05:17:41;96148.94;;;9.75;88.38
6224;BME280;3145;42.726;23.342;2022-10-16T05:20:08;96030.78;;;9.35;86.11
6224;BME280;3145;42.726;23.342;2022-10-16T05:22:36;96154.19;;;10.43;84.92
6224;BME280;3145;42.726;23.342;2022-10-16T05:25:03;96161.41;;;10.75;83.35
6224;BME280;3145;42.726;23.342;2022-10-16T05:27:30;96158.53;;;11.02;81.05
6224;BME280;3145;42.726;23.342;2022-10-16T05:29:57;96151.50;;;11.26;78.87
6224;BME280;3145;42.726;23.342;2022-10-16T05:32:24;96141.25;;;11.39;78.03
6224;BME280;3145;42.726;23.342;2022-10-16T05:34:50;96169.75;;;11.77;76.65
6224;BME280;3145;42.726;23.342;2022-10-16T05:37:17;96164.91;;;12.05;76.24
6224;BME280;3145;42.726;23.342;2022-10-16T05:39:45;96169.00;;;12.39;75.64
6224;BME280;3145;42.726;23.342;2022-10-16T05:42:12;96173.38;;;12.71;73.00
6224;BME280;3145;42.726;23.342;2022-10-16T05:44:39;96170.47;;;12.96;70.42
6224;BME280;3145;42.726;23.342;2022-10-16T05:47:06;96178.16;;;13.22;70.19
6224;BME280;3145;42.726;23.342;2022-10-16T05:49:33;96174.63;;;13.52;68.09
6224;BME280;3145;42.726;23.342;2022-10-16T05:52:00;96180.31;;;13.71;65.59
6224;BME280;3145;42.726;23.342;2022-10-16T05:54:26;96183.59;;;13.96;65.10
6224;BME280;3145;42.726;23.342;2022-10-16T05:56:54;96186.56;;;14.24;64.53
6224;BME280;3145;42.726;23.342;2022-10-16T05:59:21;96190.53;;;14.42;62.83
6224;BME280;3145;42.726;23.342;2022-10-16T06:01:48;96068.03;;;13.77;61.64
6224;BME280;3145;42.726;23.342;2022-10-16T06:04:14;96193.38;;;14.70;62.35
6224;BME280;3145;42.726;23.342;2022-10-16T06:06:41;96183.66;;;14.48;59.56
6224;BME280;3145;42.726;23.342;2022-10-16T06:09:09;96210.66;;;14.22;59.90
6224;BME280;3145;42.726;23.342;2022-10-16T06:11:36;96202.72;;;14.37;60.58
6224;BME280;3145;42.726;23.342;2022-10-16T06:14:04;96189.81;;;14.63;60.33
6224;BME280;3145;42.726;23.342;2022-10-16T06:16:32;96216.03;;;15.24;58.72
6224;BME280;3145;42.726;23.342;2022-10-16T06:19:00;96201.41;;;15.34;56.91
6224;BME280;3145;42.726;23.342;2022-10-16T06:21:28;96214.09;;;15.18;56.96
6224;BME280;3145;42.726;23.342;2022-10-16T06:23:56;96217.78;;;15.46;57.41
6224;BME280;3145;42.726;23.342;2022-10-16T06:26:24;96202.72;;;15.24;57.29
6224;BME280;3145;42.726;23.342;2022-10-16T06:28:53;96212.88;;;15.49;56.06
6224;BME280;3145;42.726;23.342;2022-10-16T06:31:22;96221.97;;;15.55;56.13
6224;BME280;3145;42.726;23.342;2022-10-16T06:33:54;96219.31;;;15.76;55.02
6224;BME280;3145;42.726;23.342;2022-10-16T06:36:21;96226.41;;;15.19;56.03
6224;BME280;3145;42.726;23.342;2022-10-16T06:38:48;96226.97;;;14.71;57.11
6224;BME280;3145;42.726;23.342;2022-10-16T06:41:17;96193.09;;;14.36;59.09
6224;BME280;3145;42.726;23.342;2022-10-16T06:43:44;96231.72;;;14.90;58.46
6224;BME280;3145;42.726;23.342;2022-10-16T06:46:12;96231.06;;;15.60;57.89
6224;BME280;3145;42.726;23.342;2022-10-16T06:48:41;96235.66;;;16.08;56.40
6224;BME280;3145;42.726;23.342;2022-10-16T06:51:09;96252.06;;;16.47;54.01
6224;BME280;3145;42.726;23.342;2022-10-16T06:53:38;96202.88;;;16.35;54.97
6224;BME280;3145;42.726;23.342;2022-10-16T06:56:08;96256.22;;;17.11;52.59
6224;BME280;3145;42.726;23.342;2022-10-16T06:58:35;96253.13;;;17.14;50.49
6224;BME280;3145;42.726;23.342;2022-10-16T07:01:02;96257.91;;;17.19;51.04
6224;BME280;3145;42.726;23.342;2022-10-16T07:03:29;96251.19;;;17.36;50.84
6224;BME280;3145;42.726;23.342;2022-10-16T07:05:57;96252.09;;;17.43;49.81
6224;BME280;3145;42.726;23.342;2022-10-16T07:08:27;96251.41;;;17.34;50.06
6224;BME280;3145;42.726;23.342;2022-10-16T07:10:58;96257.38;;;17.77;50.41
6224;BME280;3145;42.726;23.342;2022-10-16T07:13:25;96261.16;;;18.02;48.25
6224;BME280;3145;42.726;23.342;2022-10-16T07:15:52;96266.63;;;17.74;49.43
6224;BME280;3145;42.726;23.342;2022-10-16T07:18:19;96259.59;;;17.67;50.13
6224;BME280;3145;42.726;23.342;2022-10-16T07:20:46;96265.22;;;17.85;50.45
6224;BME280;3145;42.726;23.342;2022-10-16T07:23:14;96247.19;;;18.26;49.21
6224;BME280;3145;42.726;23.342;2022-10-16T07:25:40;96253.34;;;18.07;48.52
6224;BME280;3145;42.726;23.342;2022-10-16T07:28:07;96261.13;;;17.95;48.87
6224;BME280;3145;42.726;23.342;2022-10-16T07:30:35;96264.53;;;17.63;50.00
6224;BME280;3145;42.726;23.342;2022-10-16T07:33:02;96265.69;;;17.14;51.64
6224;BME280;3145;42.726;23.342;2022-10-16T07:35:29;96267.56;;;17.20;51.61
6224;BME280;3145;42.726;23.342;2022-10-16T07:37:56;96266.22;;;17.37;52.10
6224;BME280;3145;42.726;23.342;2022-10-16T07:40:24;96260.88;;;17.03;51.83
6224;BME280;3145;42.726;23.342;2022-10-16T07:42:52;96259.78;;;16.91;52.37
6224;BME280;3145;42.726;23.342;2022-10-16T07:45:19;96261.00;;;16.19;54.69
6224;BME280;3145;42.726;23.342;2022-10-16T07:47:45;96250.72;;;15.45;57.21
6224;BME280;3145;42.726;23.342;2022-10-16T07:50:12;96261.03;;;15.19;59.43
6224;BME280;3145;42.726;23.342;2022-10-16T07:52:39;96245.13;;;15.25;58.60
6224;BME280;3145;42.726;23.342;2022-10-16T07:55:06;96255.94;;;15.53;59.51
6224;BME280;3145;42.726;23.342;2022-10-16T07:57:34;96257.13;;;15.65;59.11
6224;BME280;3145;42.726;23.342;2022-10-16T08:00:02;96267.44;;;14.95;61.02
6224;BME280;3145;42.726;23.342;2022-10-16T08:02:28;96265.63;;;15.54;61.09
6224;BME280;3145;42.726;23.342;2022-10-16T08:04:55;96230.75;;;16.12;58.62
6224;BME280;3145;42.726;23.342;2022-10-16T08:07:22;96267.09;;;16.34;56.77
6224;BME280;3145;42.726;23.342;2022-10-16T08:09:49;96262.59;;;16.83;55.30
6224;BME280;3145;42.726;23.342;2022-10-16T08:12:16;96264.66;;;16.81;54.45
6224;BME280;3145;42.726;23.342;2022-10-16T08:14:44;96269.13;;;17.08;54.52
6224;BME280;3145;42.726;23.342;2022-10-16T08:17:14;96258.88;;;17.11;53.75
6224;BME280;3145;42.726;23.342;2022-10-16T08:19:44;96253.38;;;17.19;53.69
6224;BME280;3145;42.726;23.342;2022-10-16T08:22:11;96257.97;;;16.70;55.39
6224;BME280;3145;42.726;23.342;2022-10-16T08:24:38;96254.63;;;16.89;54.87
6224;BME280;3145;42.726;23.342;2022-10-16T08:27:04;96256.41;;;16.82;53.77
6224;BME280;3145;42.726;23.342;2022-10-16T08:29:32;96256.88;;;16.86;54.38
6224;BME280;3145;42.726;23.342;2022-10-16T08:32:00;96261.38;;;16.85;53.93
6224;BME280;3145;42.726;23.342;2022-10-16T08:34:27;96257.09;;;16.91;53.17
6224;BME280;3145;42.726;23.342;2022-10-16T08:36:53;96239.38;;;17.17;52.17
6224;BME280;3145;42.726;23.342;2022-10-16T08:39:20;96251.56;;;17.60;52.55
6224;BME280;3145;42.726;23.342;2022-10-16T08:42:07;96243.28;;;17.42;52.11
6224;BME280;3145;42.726;23.342;2022-10-16T08:44:47;96249.25;;;17.17;52.50
6224;BME280;3145;42.726;23.342;2022-10-16T08:47:22;96253.88;;;17.36;52.52
6224;BME280;3145;42.726;23.342;2022-10-16T08:49:56;96258.69;;;17.47;50.99
6224;BME280;3145;42.726;23.342;2022-10-16T08:52:25;96263.81;;;17.42;50.13
6224;BME280;3145;42.726;23.342;2022-10-16T08:54:55;96261.34;;;17.47;50.20
6224;BME280;3145;42.726;23.342;2022-10-16T08:57:24;96262.91;;;17.35;48.69
6224;BME280;3145;42.726;23.342;2022-10-16T08:59:52;96266.44;;;17.08;48.73
6224;BME280;3145;42.726;23.342;2022-10-16T09:02:26;96255.69;;;16.95;49.33
6224;BME280;3145;42.726;23.342;2022-10-16T09:05:06;96263.78;;;16.53;49.59
6224;BME280;3145;42.726;23.342;2022-10-16T09:07:41;96254.97;;;16.52;49.81
6224;BME280;3145;42.726;23.342;2022-10-16T09:10:23;96250.84;;;17.05;49.44
6224;BME280;3145;42.726;23.342;2022-10-16T09:12:59;96255.78;;;17.42;48.14
6224;BME280;3145;42.726;23.342;2022-10-16T09:15:32;96239.75;;;17.42;47.43
6224;BME280;3145;42.726;23.342;2022-10-16T09:18:09;96253.44;;;17.66;47.58
6224;BME280;3145;42.726;23.342;2022-10-16T09:20:44;96251.31;;;18.22;48.33
6224;BME280;3145;42.726;23.342;2022-10-16T09:23:17;96245.19;;;18.61;47.65
6224;BME280;3145;42.726;23.342;2022-10-16T09:25:46;96254.69;;;18.76;45.86
6224;BME280;3145;42.726;23.342;2022-10-16T09:28:17;96245.59;;;18.90;46.13
6224;BME280;3145;42.726;23.342;2022-10-16T09:30:45;96246.84;;;18.68;45.01
6224;BME280;3145;42.726;23.342;2022-10-16T09:33:15;96255.06;;;18.47;45.26
6224;BME280;3145;42.726;23.342;2022-10-16T09:35:44;96250.97;;;18.51;45.62
6224;BME280;3145;42.726;23.342;2022-10-16T09:38:22;96263.94;;;18.80;44.95
6224;BME280;3145;42.726;23.342;2022-10-16T09:40:49;96246.66;;;18.76;44.59
6224;BME280;3145;42.726;23.342;2022-10-16T09:43:21;96247.44;;;18.96;45.04
6224;BME280;3145;42.726;23.342;2022-10-16T09:45:56;96248.44;;;19.15;44.56
6224;BME280;3145;42.726;23.342;2022-10-16T09:48:27;96233.56;;;19.38;43.97
6224;BME280;3145;42.726;23.342;2022-10-16T09:50:59;96241.66;;;19.12;44.66
6224;BME280;3145;42.726;23.342;2022-10-16T09:53:38;96228.72;;;18.70;45.83
6224;BME280;3145;42.726;23.342;2022-10-16T09:56:06;96234.91;;;18.77;44.30
6224;BME280;3145;42.726;23.342;2022-10-16T09:58:33;96229.28;;;18.98;45.40
6224;BME280;3145;42.726;23.342;2022-10-16T10:01:00;96228.31;;;18.60;45.45
6224;BME280;3145;42.726;23.342;2022-10-16T10:03:37;96231.53;;;18.17;45.90
6224;BME280;3145;42.726;23.342;2022-10-16T10:06:15;96229.97;;;18.55;45.67
6224;BME280;3145;42.726;23.342;2022-10-16T10:09:06;96223.56;;;18.62;44.18
6224;BME280;3145;42.726;23.342;2022-10-16T10:14:24;96224.53;;;19.13;43.41
6224;BME280;3145;42.726;23.342;2022-10-16T10:16:52;96213.09;;;19.50;43.94
6224;BME280;3145;42.726;23.342;2022-10-16T10:19:28;96214.53;;;19.97;42.24
6224;BME280;3145;42.726;23.342;2022-10-16T10:21:55;96190.97;;;19.61;41.58
6224;BME280;3145;42.726;23.342;2022-10-16T10:24:22;96212.53;;;19.86;41.91
6224;BME280;3145;42.726;23.342;2022-10-16T10:26:54;96224.81;;;19.62;41.21
6224;BME280;3145;42.726;23.342;2022-10-16T10:29:34;96213.53;;;19.91;42.09
6224;BME280;3145;42.726;23.342;2022-10-16T10:32:15;96216.22;;;19.47;42.27
6224;BME280;3145;42.726;23.342;2022-10-16T10:35:02;96215.50;;;18.95;43.42
6224;BME280;3145;42.726;23.342;2022-10-16T10:37:41;96201.41;;;19.32;43.30
6224;BME280;3145;42.726;23.342;2022-10-16T10:40:23;96206.03;;;18.79;43.56
6224;BME280;3145;42.726;23.342;2022-10-16T10:42:59;96192.06;;;18.58;43.97
6224;BME280;3145;42.726;23.342;2022-10-16T10:45:38;96196.78;;;18.75;44.42
6224;BME280;3145;42.726;23.342;2022-10-16T10:48:19;96193.88;;;18.96;44.36
6224;BME280;3145;42.726;23.342;2022-10-16T10:50:55;96188.47;;;19.09;43.52
6224;BME280;3145;42.726;23.342;2022-10-16T10:53:33;96187.88;;;18.94;43.11
6224;BME280;3145;42.726;23.342;2022-10-16T10:56:12;96177.22;;;18.68;44.52
6224;BME280;3145;42.726;23.342;2022-10-16T11:01:50;96184.34;;;19.07;43.75
6224;BME280;3145;42.726;23.342;2022-10-16T11:04:33;96175.06;;;19.09;44.08
6224;BME280;3145;42.726;23.342;2022-10-16T11:07:09;96177.25;;;18.62;44.17
6224;BME280;3145;42.726;23.342;2022-10-16T11:09:42;96177.66;;;18.65;44.55
6224;BME280;3145;42.726;23.342;2022-10-16T11:12:17;96174.75;;;18.47;45.91
6224;BME280;3145;42.726;23.342;2022-10-16T11:14:48;96173.09;;;18.72;45.02
6224;BME280;3145;42.726;23.342;2022-10-16T11:17:19;96173.09;;;18.59;44.25
6224;BME280;3145;42.726;23.342;2022-10-16T11:19:54;96178.84;;;18.82;43.85
6224;BME280;3145;42.726;23.342;2022-10-16T11:22:27;96128.59;;;18.71;43.62
6224;BME280;3145;42.726;23.342;2022-10-16T11:25:02;96164.41;;;18.96;43.65
6224;BME280;3145;42.726;23.342;2022-10-16T11:27:35;96163.50;;;19.22;43.22
6224;BME280;3145;42.726;23.342;2022-10-16T11:30:11;96157.66;;;19.44;42.38
6224;BME280;3145;42.726;23.342;2022-10-16T11:32:52;96164.31;;;19.16;42.40
6224;BME280;3145;42.726;23.342;2022-10-16T11:35:24;96153.56;;;19.22;43.38
6224;BME280;3145;42.726;23.342;2022-10-16T11:37:53;96160.50;;;18.92;43.51
6224;BME280;3145;42.726;23.342;2022-10-16T11:40:27;96118.47;;;18.86;44.57
6224;BME280;3145;42.726;23.342;2022-10-16T11:42:58;96164.78;;;19.06;42.46
6224;BME280;3145;42.726;23.342;2022-10-16T11:45:33;96163.16;;;18.99;43.08
6224;BME280;3145;42.726;23.342;2022-10-16T11:48:11;96142.97;;;18.83;43.70
6224;BME280;3145;42.726;23.342;2022-10-16T11:50:45;96154.84;;;19.13;43.10
6224;BME280;3145;42.726;23.342;2022-10-16T11:53:23;96167.63;;;19.11;42.30
6224;BME280;3145;42.726;23.342;2022-10-16T11:55:53;96159.81;;;19.16;43.27
6224;BME280;3145;42.726;23.342;2022-10-16T11:58:25;96159.78;;;19.23;41.60
6224;BME280;3145;42.726;23.342;2022-10-16T12:00:58;96086.97;;;18.75;42.59
6224;BME280;3145;42.726;23.342;2022-10-16T12:03:31;96158.94;;;19.22;42.36
6224;BME280;3145;42.726;23.342;2022-10-16T12:06:19;96160.63;;;19.30;41.00
6224;BME280;3145;42.726;23.342;2022-10-16T12:08:51;96159.63;;;19.62;40.87
6224;BME280;3145;42.726;23.342;2022-10-16T12:11:23;96161.31;;;19.56;40.32
6224;BME280;3145;42.726;23.342;2022-10-16T12:13:51;96158.22;;;19.53;41.13
6224;BME280;3145;42.726;23.342;2022-10-16T12:16:21;96157.50;;;19.26;40.98
6224;BME280;3145;42.726;23.342;2022-10-16T12:18:49;96148.69;;;19.06;41.55
6224;BME280;3145;42.726;23.342;2022-10-16T12:21:17;96156.59;;;18.88;41.41
6224;BME280;3145;42.726;23.342;2022-10-16T12:23:48;96070.56;;;18.33;40.61
6224;BME280;3145;42.726;23.342;2022-10-16T12:26:25;96157.78;;;19.05;40.85
6224;BME280;3145;42.726;23.342;2022-10-16T12:28:53;96145.75;;;19.21;40.04
6224;BME280;3145;42.726;23.342;2022-10-16T12:31:21;96159.16;;;19.34;38.55
6224;BME280;3145;42.726;23.342;2022-10-16T12:33:58;96154.25;;;19.24;39.70
6224;BME280;3145;42.726;23.342;2022-10-16T12:36:30;96158.13;;;19.15;39.18
6224;BME280;3145;42.726;23.342;2022-10-16T12:39:27;96161.91;;;19.01;40.59
6224;BME280;3145;42.726;23.342;2022-10-16T12:42:04;96161.03;;;19.07;41.37
6224;BME280;3145;42.726;23.342;2022-10-16T12:44:33;96147.22;;;19.10;40.62
6224;BME280;3145;42.726;23.342;2022-10-16T12:47:00;96146.47;;;18.90;39.94
6224;BME280;3145;42.726;23.342;2022-10-16T12:49:34;96162.75;;;19.02;39.51
6224;BME280;3145;42.726;23.342;2022-10-16T12:52:02;96157.38;;;19.02;39.36
6224;BME280;3145;42.726;23.342;2022-10-16T12:54:34;96162.72;;;19.08;39.57
6224;BME280;3145;42.726;23.342;2022-10-16T12:57:25;96165.00;;;18.98;39.33
6224;BME280;3145;42.726;23.342;2022-10-16T13:00:03;96168.84;;;19.15;38.46
6224;BME280;3145;42.726;23.342;2022-10-16T13:02:53;96163.09;;;19.31;39.14
6224;BME280;3145;42.726;23.342;2022-10-16T13:05:34;96148.44;;;19.34;38.60
6224;BME280;3145;42.726;23.342;2022-10-16T13:08:23;96169.19;;;19.51;39.54
6224;BME280;3145;42.726;23.342;2022-10-16T13:11:03;96153.59;;;19.35;38.98
6224;BME280;3145;42.726;23.342;2022-10-16T13:13:50;96167.50;;;19.50;38.06
6224;BME280;3145;42.726;23.342;2022-10-16T13:16:26;96166.78;;;19.30;37.98
6224;BME280;3145;42.726;23.342;2022-10-16T13:19:06;96174.44;;;19.27;36.70
6224;BME280;3145;42.726;23.342;2022-10-16T13:21:43;96169.25;;;19.32;37.10
6224;BME280;3145;42.726;23.342;2022-10-16T13:24:30;96172.75;;;19.19;35.64
6224;BME280;3145;42.726;23.342;2022-10-16T13:27:06;96152.00;;;19.08;35.64
6224;BME280;3145;42.726;23.342;2022-10-16T13:29:35;96177.56;;;19.04;35.74
6224;BME280;3145;42.726;23.342;2022-10-16T13:32:07;96168.94;;;18.89;35.59
6224;BME280;3145;42.726;23.342;2022-10-16T13:34:44;96176.38;;;18.74;35.20
6224;BME280;3145;42.726;23.342;2022-10-16T13:37:17;96184.63;;;18.73;35.59